Time;durP1;ratioP1;P1;durP2;ratioP2;P2;SDS_P1;SDS_P2;PMS_P1;PMS_P2;Temp;Humidity;BMP_temperature;BMP_pressure;BME280_temperature;BME280_humidity;BME280_pressure;Samples;Min_cycle;Max_cycle;Signal;HPM_P1;HPM_P2
2021/03/17 00:02:06;;;;;;;4.70;2.50;;;;;;;;;;4997448;28;20021;-85
2021/03/17 00:04:51;;;;;;;4.03;1.90;;;;;;;;;;4991813;28;20025;-85
2021/03/17 00:07:36;;;;;;;3.15;2.08;;;;;;;;;;4998186;28;20040;-85
2021/03/17 00:10:26;;;;;;;4.15;2.40;;;;;;;;;;4999905;28;20089;-84
2021/03/17 00:13:11;;;;;;;3.30;2.10;;;;;;;;;;4993460;28;20034;-85
2021/03/17 00:16:00;;;;;;;4.45;2.00;;;;;;;;;;5001969;28;20090;-86
2021/03/17 00:18:46;;;;;;;5.43;2.57;;;;;;;;;;5005222;28;20130;-86
2021/03/17 00:21:31;;;;;;;2.85;2.10;;;;;;;;;;5007791;28;20046;-85
2021/03/17 00:24:16;;;;;;;4.40;2.28;;;;;;;;;;5000353;28;20049;-85
2021/03/17 00:27:02;;;;;;;3.95;2.42;;;;;;;;;;4994874;28;20253;-87
2021/03/17 00:29:47;;;;;;;4.50;2.45;;;;;;;;;;5000932;28;20045;-86
2021/03/17 00:32:33;;;;;;;3.05;2.67;;;;;;;;;;4993731;28;20030;-84
2021/03/17 00:35:18;;;;;;;2.85;2.30;;;;;;;;;;4996278;28;20457;-86
2021/03/17 00:38:03;;;;;;;6.15;2.35;;;;;;;;;;4998215;28;20646;-85
2021/03/17 00:40:49;;;;;;;3.95;2.47;;;;;;;;;;5008884;28;20033;-85
2021/03/17 00:43:34;;;;;;;3.72;2.47;;;;;;;;;;5005714;28;20476;-86
2021/03/17 00:46:19;;;;;;;4.80;2.65;;;;;;;;;;5000538;28;20018;-86
2021/03/17 00:49:04;;;;;;;3.38;2.42;;;;;;;;;;5001092;28;20026;-86
2021/03/17 00:51:49;;;;;;;3.40;2.33;;;;;;;;;;4992285;28;20026;-85
2021/03/17 00:54:35;;;;;;;4.25;2.65;;;;;;;;;;5013663;28;20014;-86
2021/03/17 00:57:20;;;;;;;3.40;2.25;;;;;;;;;;5005246;28;20473;-85
2021/03/17 01:00:07;;;;;;;4.28;2.97;;;;;;;;;;4994160;28;20520;-85
2021/03/17 01:02:52;;;;;;;4.07;2.63;;;;;;;;;;5013650;28;20046;-86
2021/03/17 01:05:40;;;;;;;4.13;3.00;;;;;;;;;;5012994;28;20029;-84
2021/03/17 01:08:26;;;;;;;4.90;2.67;;;;;;;;;;4990868;28;20333;-85
2021/03/17 01:11:11;;;;;;;5.65;2.70;;;;;;;;;;4991615;28;20038;-85
2021/03/17 01:13:56;;;;;;;5.22;3.17;;;;;;;;;;4994573;28;20632;-85
2021/03/17 01:16:41;;;;;;;5.15;3.10;;;;;;;;;;5002353;28;20053;-85
2021/03/17 01:19:26;;;;;;;4.32;2.90;;;;;;;;;;5004952;28;20036;-84
2021/03/17 01:22:12;;;;;;;4.18;2.92;;;;;;;;;;5020040;28;20025;-85
2021/03/17 01:24:57;;;;;;;6.57;3.50;;;;;;;;;;4988498;28;20030;-86
2021/03/17 01:27:42;;;;;;;4.60;2.85;;;;;;;;;;4993518;28;20033;-86
2021/03/17 01:30:28;;;;;;;4.15;2.65;;;;;;;;;;5001807;28;20084;-84
2021/03/17 01:33:13;;;;;;;4.70;3.15;;;;;;;;;;5015226;28;20364;-84
2021/03/17 01:35:59;;;;;;;4.82;3.10;;;;;;;;;;4994982;28;20576;-86
2021/03/17 01:38:44;;;;;;;5.40;3.28;;;;;;;;;;4997909;28;20060;-86
2021/03/17 01:41:30;;;;;;;5.68;3.17;;;;;;;;;;4997224;28;20049;-88
2021/03/17 01:44:15;;;;;;;6.28;3.75;;;;;;;;;;4994289;28;20033;-85
2021/03/17 01:47:01;;;;;;;5.78;3.53;;;;;;;;;;5003578;28;20054;-85
2021/03/17 01:49:46;;;;;;;4.80;2.70;;;;;;;;;;5004739;28;20033;-86
2021/03/17 01:52:31;;;;;;;4.75;3.28;;;;;;;;;;5014993;28;20050;-86
2021/03/17 01:55:17;;;;;;;5.05;2.72;;;;;;;;;;5002926;28;20432;-85
2021/03/17 01:58:02;;;;;;;4.43;2.92;;;;;;;;;;5016497;28;20022;-86
2021/03/17 02:00:48;;;;;;;4.78;3.40;;;;;;;;;;4995653;28;20072;-86
2021/03/17 02:03:33;;;;;;;5.07;3.33;;;;;;;;;;5002796;28;20076;-86
2021/03/17 02:06:18;;;;;;;7.65;4.30;;;;;;;;;;5004055;28;20492;-86
2021/03/17 02:09:04;;;;;;;6.45;3.70;;;;;;;;;;4991811;28;20065;-88
2021/03/17 02:11:54;;;;;;;7.72;3.88;;;;;;;;;;5019436;28;20060;-90
2021/03/17 02:14:39;;;;;;;6.18;4.30;;;;;;;;;;4997782;28;20026;-89
2021/03/17 02:17:26;;;;;;;6.43;3.95;;;;;;;;;;5000544;28;20529;-87
2021/03/17 02:20:11;;;;;;;6.32;4.25;;;;;;;;;;5022384;28;20066;-87
2021/03/17 02:23:02;;;;;;;6.43;4.30;;;;;;;;;;5019963;28;20144;-86
2021/03/17 02:26:04;;;;;;;4.57;3.50;;;;;;;;;;5006111;28;20079;-84
2021/03/17 02:28:58;;;;;;;5.47;3.85;;;;;;;;;;5014991;28;20101;-86
2021/03/17 02:31:47;;;;;;;6.63;4.03;;;;;;;;;;4998733;28;20025;-84
2021/03/17 02:34:37;;;;;;;7.50;5.00;;;;;;;;;;5018196;28;20018;-86
2021/03/17 02:37:23;;;;;;;7.25;4.60;;;;;;;;;;5020404;28;20053;-85
2021/03/17 02:40:13;;;;;;;6.05;4.10;;;;;;;;;;5000313;28;20056;-86
2021/03/17 02:43:03;;;;;;;6.82;3.80;;;;;;;;;;5005451;28;20022;-86
2021/03/17 02:45:52;;;;;;;5.13;3.72;;;;;;;;;;4991955;28;20026;-85
2021/03/17 02:48:44;;;;;;;6.38;4.32;;;;;;;;;;5002435;28;20274;-86
2021/03/17 02:51:37;;;;;;;6.10;4.15;;;;;;;;;;5003096;28;20060;-85
2021/03/17 02:54:23;;;;;;;6.45;4.43;;;;;;;;;;4996047;28;20385;-87
2021/03/17 02:57:19;;;;;;;6.93;4.03;;;;;;;;;;5010057;28;20148;-87
2021/03/17 03:00:10;;;;;;;7.65;4.85;;;;;;;;;;4991559;28;20030;-86
2021/03/17 03:02:57;;;;;;;4.93;3.72;;;;;;;;;;5018305;28;20030;-85
2021/03/17 03:05:42;;;;;;;5.47;3.72;;;;;;;;;;5004957;28;20025;-87
2021/03/17 03:08:28;;;;;;;7.47;4.63;;;;;;;;;;5002643;28;20022;-88
2021/03/17 03:11:14;;;;;;;6.72;4.30;;;;;;;;;;5015885;28;20037;-86
2021/03/17 03:14:00;;;;;;;6.70;4.22;;;;;;;;;;5000507;28;20117;-86
2021/03/17 03:16:46;;;;;;;4.47;3.40;;;;;;;;;;5015591;28;20034;-85
2021/03/17 03:19:34;;;;;;;4.15;2.88;;;;;;;;;;4996193;28;20030;-85
2021/03/17 03:22:21;;;;;;;3.50;2.92;;;;;;;;;;4997273;28;20030;-85
2021/03/17 03:25:07;;;;;;;5.88;3.60;;;;;;;;;;5001974;28;20030;-84
2021/03/17 03:27:53;;;;;;;3.30;2.53;;;;;;;;;;5004881;28;20477;-85
2021/03/17 03:30:41;;;;;;;4.40;3.35;;;;;;;;;;4999902;28;20049;-86
2021/03/17 03:33:26;;;;;;;4.55;3.28;;;;;;;;;;5005490;28;20481;-85
2021/03/17 03:36:12;;;;;;;5.13;3.40;;;;;;;;;;4991728;28;20064;-85
2021/03/17 03:38:58;;;;;;;5.00;3.67;;;;;;;;;;4996647;28;20022;-86
2021/03/17 03:41:43;;;;;;;4.80;3.00;;;;;;;;;;4994863;28;20032;-87
2021/03/17 03:44:29;;;;;;;5.50;3.88;;;;;;;;;;5001357;28;20033;-87
2021/03/17 03:47:14;;;;;;;5.32;3.40;;;;;;;;;;5023953;28;20018;-87
2021/03/17 03:50:00;;;;;;;4.43;3.10;;;;;;;;;;5003279;28;20026;-86
2021/03/17 03:52:54;;;;;;;6.80;3.30;;;;;;;;;;5002299;28;20448;-87
2021/03/17 03:55:39;;;;;;;6.28;3.85;;;;;;;;;;5014789;28;20064;-85
2021/03/17 03:58:29;;;;;;;4.18;3.05;;;;;;;;;;5005542;28;20045;-86
2021/03/17 04:01:37;;;;;;;5.35;3.88;;;;;;;;;;4998401;28;20420;-87
2021/03/17 04:04:24;;;;;;;3.95;3.00;;;;;;;;;;4993836;28;20022;-85
2021/03/17 04:07:09;;;;;;;4.82;3.65;;;;;;;;;;4995999;28;20041;-86
2021/03/17 04:09:58;;;;;;;6.20;4.35;;;;;;;;;;4998878;28;20025;-86
2021/03/17 04:12:43;;;;;;;5.82;3.90;;;;;;;;;;4998816;28;20057;-87
2021/03/17 04:15:29;;;;;;;7.05;4.57;;;;;;;;;;5004285;28;20061;-85
2021/03/17 04:18:15;;;;;;;5.93;4.20;;;;;;;;;;4991864;28;20033;-86
2021/03/17 04:21:02;;;;;;;7.78;4.82;;;;;;;;;;5000686;28;20042;-87
2021/03/17 04:23:49;;;;;;;6.60;4.80;;;;;;;;;;5010772;28;20026;-87
2021/03/17 04:26:35;;;;;;;5.55;4.07;;;;;;;;;;5005966;28;20036;-86
2021/03/17 04:29:21;;;;;;;5.68;4.05;;;;;;;;;;5009688;28;20021;-86
2021/03/17 04:32:06;;;;;;;7.32;4.65;;;;;;;;;;5005903;28;20033;-86
2021/03/17 04:34:52;;;;;;;6.82;4.93;;;;;;;;;;5003612;28;20108;-86
2021/03/17 04:37:39;;;;;;;7.88;4.88;;;;;;;;;;5015323;28;20028;-87
2021/03/17 04:40:24;;;;;;;8.57;5.90;;;;;;;;;;5019103;28;20018;-86
2021/03/17 04:43:10;;;;;;;8.80;6.07;;;;;;;;;;5022366;28;20358;-87
2021/03/17 04:45:59;;;;;;;9.98;5.93;;;;;;;;;;5011348;28;20086;-85
2021/03/17 04:48:45;;;;;;;8.43;5.80;;;;;;;;;;5015895;28;20080;-85
2021/03/17 04:51:31;;;;;;;8.27;5.55;;;;;;;;;;5013190;28;20029;-86
2021/03/17 04:54:16;;;;;;;7.75;6.13;;;;;;;;;;5012684;28;20018;-84
2021/03/17 04:57:01;;;;;;;7.82;5.53;;;;;;;;;;5000062;28;20034;-86
2021/03/17 04:59:48;;;;;;;8.32;6.00;;;;;;;;;;5014662;28;20038;-86
2021/03/17 05:02:35;;;;;;;6.95;5.50;;;;;;;;;;5004352;28;20116;-86
2021/03/17 05:05:21;;;;;;;9.50;6.20;;;;;;;;;;4991006;28;20025;-86
2021/03/17 05:08:08;;;;;;;8.02;5.53;;;;;;;;;;5007841;28;20898;-85
2021/03/17 05:10:54;;;;;;;8.25;5.88;;;;;;;;;;5000673;28;20495;-85
2021/03/17 05:13:40;;;;;;;10.32;6.05;;;;;;;;;;5019116;28;20815;-85
2021/03/17 05:16:25;;;;;;;10.23;6.32;;;;;;;;;;4986512;28;20065;-84
2021/03/17 05:19:12;;;;;;;7.85;5.80;;;;;;;;;;4995205;28;20452;-87
2021/03/17 05:21:57;;;;;;;8.98;6.35;;;;;;;;;;4983532;28;20064;-87
2021/03/17 05:24:43;;;;;;;11.65;7.13;;;;;;;;;;5028713;28;20021;-87
2021/03/17 05:27:28;;;;;;;10.43;6.97;;;;;;;;;;4981387;28;20057;-87
2021/03/17 05:30:14;;;;;;;9.77;7.05;;;;;;;;;;5004397;28;20017;-87
2021/03/17 05:33:01;;;;;;;9.20;6.38;;;;;;;;;;5001803;28;20121;-85
2021/03/17 05:35:46;;;;;;;11.98;7.53;;;;;;;;;;5020042;28;20561;-84
2021/03/17 05:38:31;;;;;;;12.20;7.82;;;;;;;;;;4996109;28;20465;-87
2021/03/17 05:41:16;;;;;;;11.50;8.15;;;;;;;;;;5016338;28;20133;-86
2021/03/17 05:44:02;;;;;;;12.05;9.13;;;;;;;;;;5018438;28;20044;-85
2021/03/17 05:46:49;;;;;;;12.65;9.05;;;;;;;;;;4986751;28;20058;-86
2021/03/17 05:49:34;;;;;;;12.95;8.02;;;;;;;;;;5019877;28;20072;-87
2021/03/17 05:52:20;;;;;;;12.00;8.98;;;;;;;;;;5019407;28;20030;-87
2021/03/17 05:55:06;;;;;;;12.80;9.32;;;;;;;;;;5018188;28;20151;-87
2021/03/17 05:57:51;;;;;;;12.73;9.82;;;;;;;;;;4999033;28;20144;-83
2021/03/17 06:00:37;;;;;;;15.13;10.50;;;;;;;;;;5001131;28;20073;-80
2021/03/17 06:03:23;;;;;;;11.90;8.77;;;;;;;;;;4990881;28;20161;-81
2021/03/17 06:06:10;;;;;;;14.32;9.30;;;;;;;;;;5010414;28;20022;-80
2021/03/17 06:08:59;;;;;;;13.32;9.98;;;;;;;;;;5010082;28;20130;-81
2021/03/17 06:11:45;;;;;;;15.57;10.45;;;;;;;;;;5005451;28;20103;-80
2021/03/17 06:14:30;;;;;;;16.52;12.27;;;;;;;;;;4996697;28;20513;-80
2021/03/17 06:17:22;;;;;;;16.25;11.93;;;;;;;;;;5002791;28;20037;-81
2021/03/17 06:20:07;;;;;;;16.90;12.23;;;;;;;;;;5014094;28;20063;-80
2021/03/17 06:22:52;;;;;;;15.55;11.82;;;;;;;;;;4995931;28;20018;-81
2021/03/17 06:25:38;;;;;;;16.27;11.32;;;;;;;;;;4984261;28;20448;-81
2021/03/17 06:28:24;;;;;;;18.48;13.88;;;;;;;;;;5013579;28;20097;-80
2021/03/17 06:31:10;;;;;;;18.92;11.45;;;;;;;;;;5000819;28;20025;-81
2021/03/17 06:33:56;;;;;;;14.30;11.95;;;;;;;;;;4997506;28;20032;-79
2021/03/17 06:36:52;;;;;;;14.15;10.85;;;;;;;;;;4995728;28;20033;-81
2021/03/17 06:39:37;;;;;;;16.23;12.00;;;;;;;;;;4998063;28;20511;-81
2021/03/17 06:42:37;;;;;;;17.73;13.02;;;;;;;;;;5013496;28;20489;-83
2021/03/17 06:45:29;;;;;;;17.90;12.50;;;;;;;;;;5016841;28;20029;-84
2021/03/17 06:48:17;;;;;;;17.05;12.55;;;;;;;;;;4998827;28;20021;-86
2021/03/17 06:51:13;;;;;;;16.80;13.00;;;;;;;;;;4995377;28;20014;-82
2021/03/17 06:54:00;;;;;;;15.25;11.52;;;;;;;;;;4998941;28;20026;-83
2021/03/17 06:56:46;;;;;;;20.13;13.50;;;;;;;;;;4988554;28;20022;-81
2021/03/17 06:59:31;;;;;;;15.07;11.63;;;;;;;;;;5016489;28;20418;-80
2021/03/17 07:02:18;;;;;;;19.45;14.10;;;;;;;;;;5013079;28;20346;-81
2021/03/17 07:05:03;;;;;;;14.52;11.10;;;;;;;;;;5005922;28;20033;-81
2021/03/17 07:07:52;;;;;;;16.67;12.23;;;;;;;;;;5009147;28;20029;-81
2021/03/17 07:10:37;;;;;;;15.10;12.18;;;;;;;;;;5012733;28;20048;-81
2021/03/17 07:13:23;;;;;;;16.77;11.23;;;;;;;;;;4986383;28;20116;-81
2021/03/17 07:16:09;;;;;;;14.52;10.75;;;;;;;;;;5014607;28;20354;-81
2021/03/17 07:18:54;;;;;;;13.85;9.90;;;;;;;;;;5005229;28;20038;-82
2021/03/17 07:21:40;;;;;;;13.82;10.27;;;;;;;;;;4976950;28;20374;-81
2021/03/17 07:24:26;;;;;;;14.57;9.63;;;;;;;;;;5004106;28;20222;-81
2021/03/17 07:27:11;;;;;;;13.75;9.98;;;;;;;;;;4999326;28;20107;-80
2021/03/17 07:29:59;;;;;;;14.43;11.20;;;;;;;;;;5002702;28;20404;-83
2021/03/17 07:32:56;;;;;;;14.75;10.82;;;;;;;;;;5003387;28;20049;-82
2021/03/17 07:35:42;;;;;;;14.80;10.55;;;;;;;;;;5010419;28;20363;-81
2021/03/17 07:38:27;;;;;;;17.98;10.80;;;;;;;;;;5003128;28;20463;-81
2021/03/17 07:41:12;;;;;;;15.73;10.88;;;;;;;;;;4983044;28;20030;-81
2021/03/17 07:43:57;;;;;;;17.90;12.15;;;;;;;;;;5014443;28;20548;-82
2021/03/17 07:46:44;;;;;;;16.70;11.77;;;;;;;;;;5010547;28;20392;-81
2021/03/17 07:49:29;;;;;;;18.08;10.20;;;;;;;;;;4999212;28;20037;-81
2021/03/17 07:52:17;;;;;;;14.18;10.68;;;;;;;;;;4993320;28;20021;-81
2021/03/17 07:55:06;;;;;;;24.00;14.13;;;;;;;;;;4992681;28;20049;-80
2021/03/17 07:57:51;;;;;;;15.70;10.00;;;;;;;;;;5006303;28;20069;-81
2021/03/17 08:00:37;;;;;;;16.65;11.18;;;;;;;;;;4985460;28;20037;-81
2021/03/17 08:03:22;;;;;;;15.75;10.75;;;;;;;;;;4991878;28;20022;-81
2021/03/17 08:06:08;;;;;;;14.48;9.50;;;;;;;;;;4992962;28;20024;-82
2021/03/17 08:08:56;;;;;;;15.13;10.52;;;;;;;;;;4990656;28;20135;-81
2021/03/17 08:11:42;;;;;;;13.80;9.55;;;;;;;;;;5012223;28;20022;-81
2021/03/17 08:14:28;;;;;;;12.90;9.02;;;;;;;;;;5001257;28;20026;-82
2021/03/17 08:17:28;;;;;;;14.02;9.73;;;;;;;;;;5011743;28;20072;-82
2021/03/17 08:20:17;;;;;;;11.15;7.90;;;;;;;;;;5000531;28;20045;-80
2021/03/17 08:23:02;;;;;;;10.80;7.40;;;;;;;;;;5000373;28;20050;-81
2021/03/17 08:25:47;;;;;;;13.38;7.53;;;;;;;;;;5015202;28;20034;-82
2021/03/17 08:28:45;;;;;;;11.57;6.80;;;;;;;;;;5008589;28;20030;-81
2021/03/17 08:31:39;;;;;;;9.48;5.55;;;;;;;;;;5001736;28;20072;-80
2021/03/17 08:34:26;;;;;;;10.57;6.63;;;;;;;;;;4998574;28;20055;-81
2021/03/17 08:37:11;;;;;;;13.00;6.80;;;;;;;;;;4984743;28;20022;-81
2021/03/17 08:39:56;;;;;;;34.30;11.13;;;;;;;;;;5008315;28;20097;-81
2021/03/17 08:42:42;;;;;;;15.75;10.32;;;;;;;;;;5015024;28;20029;-82
2021/03/17 08:45:37;;;;;;;;;;;;;;;;;;;;;
2021/03/17 08:52:02;;;;;;;12.82;8.02;;;;;;;;;;4993200;28;20018;-82
2021/03/17 08:54:56;;;;;;;11.73;7.65;;;;;;;;;;5002964;28;20117;-80
2021/03/17 08:58:07;;;;;;;13.85;8.52;;;;;;;;;;5011625;28;20042;-81
2021/03/17 09:00:59;;;;;;;14.57;9.15;;;;;;;;;;5000835;28;20368;-81
2021/03/17 09:03:45;;;;;;;13.30;8.00;;;;;;;;;;5008183;28;20018;-81
2021/03/17 09:06:31;;;;;;;9.55;6.70;;;;;;;;;;5000011;28;20030;-83
2021/03/17 09:09:17;;;;;;;11.52;6.78;;;;;;;;;;5019109;28;20563;-81
2021/03/17 09:12:02;;;;;;;10.18;6.15;;;;;;;;;;5016132;28;20096;-82
2021/03/17 09:14:47;;;;;;;12.48;7.07;;;;;;;;;;5011826;28;20030;-81
2021/03/17 09:17:33;;;;;;;11.02;6.35;;;;;;;;;;5003082;28;20025;-82
2021/03/17 09:20:30;;;;;;;10.50;5.70;;;;;;;;;;4999262;28;20555;-82
2021/03/17 09:23:21;;;;;;;9.57;6.13;;;;;;;;;;4994909;28;20150;-81
2021/03/17 09:26:07;;;;;;;9.98;5.82;;;;;;;;;;5011935;28;20046;-81
2021/03/17 09:28:53;;;;;;;7.13;4.90;;;;;;;;;;5019284;28;20049;-82
2021/03/17 09:31:38;;;;;;;6.68;4.32;;;;;;;;;;5011725;28;20025;-82
2021/03/17 09:34:27;;;;;;;6.28;4.13;;;;;;;;;;5003725;28;20022;-83
2021/03/17 09:37:12;;;;;;;11.35;4.82;;;;;;;;;;5007214;28;20112;-83
2021/03/17 09:40:01;;;;;;;8.13;4.75;;;;;;;;;;4992607;28;20033;-84
2021/03/17 09:42:46;;;;;;;8.02;5.00;;;;;;;;;;4977558;28;20091;-83
2021/03/17 09:45:31;;;;;;;8.25;4.80;;;;;;;;;;4999168;28;20117;-83
2021/03/17 09:48:17;;;;;;;9.88;5.15;;;;;;;;;;5002342;28;20163;-83
2021/03/17 09:51:02;;;;;;;7.97;4.57;;;;;;;;;;5014733;28;20022;-83
2021/03/17 09:53:48;;;;;;;25.77;16.58;;;;;;;;;;5006655;28;20420;-82
2021/03/17 09:56:33;;;;;;;9.50;5.85;;;;;;;;;;5011634;28;20064;-81
2021/03/17 09:59:29;;;;;;;6.78;5.32;;;;;;;;;;5001354;28;20030;-82
2021/03/17 10:02:21;;;;;;;6.00;3.78;;;;;;;;;;5010657;28;20485;-84
2021/03/17 10:05:06;;;;;;;7.53;4.22;;;;;;;;;;5008073;28;20052;-83
2021/03/17 10:07:51;;;;;;;6.53;3.80;;;;;;;;;;5011654;28;20038;-84
2021/03/17 10:10:40;;;;;;;5.32;3.78;;;;;;;;;;5007352;28;20484;-83
2021/03/17 10:13:49;;;;;;;6.28;4.63;;;;;;;;;;4999192;28;20026;-82
2021/03/17 10:16:34;;;;;;;8.05;4.90;;;;;;;;;;5009644;28;20041;-84
2021/03/17 10:19:20;;;;;;;6.95;3.92;;;;;;;;;;5003588;28;20539;-85
2021/03/17 10:22:09;;;;;;;7.32;4.70;;;;;;;;;;5019154;28;20121;-84
2021/03/17 10:24:55;;;;;;;7.68;4.20;;;;;;;;;;4999230;28;22045;-86
2021/03/17 10:27:43;;;;;;;8.05;4.72;;;;;;;;;;4986600;28;20022;-86
2021/03/17 10:30:30;;;;;;;6.88;4.45;;;;;;;;;;5000448;28;20189;-85
2021/03/17 10:33:17;;;;;;;7.53;4.35;;;;;;;;;;4982022;28;20025;-84
2021/03/17 10:36:04;;;;;;;7.05;4.88;;;;;;;;;;4998617;28;20030;-85
2021/03/17 10:38:51;;;;;;;11.95;7.38;;;;;;;;;;5003811;28;20133;-86
2021/03/17 10:41:37;;;;;;;9.30;4.75;;;;;;;;;;4995337;28;20546;-85
2021/03/17 10:44:24;;;;;;;6.03;3.88;;;;;;;;;;5002973;28;20103;-84
2021/03/17 10:47:10;;;;;;;5.07;2.95;;;;;;;;;;5013155;28;20030;-84
2021/03/17 10:49:56;;;;;;;4.32;3.92;;;;;;;;;;4996362;28;20105;-84
2021/03/17 10:52:43;;;;;;;4.90;3.70;;;;;;;;;;5000314;28;20030;-84
2021/03/17 10:55:29;;;;;;;5.45;3.20;;;;;;;;;;5003120;28;20130;-84
2021/03/17 10:58:17;;;;;;;5.95;3.25;;;;;;;;;;4998751;28;20026;-85
2021/03/17 11:01:03;;;;;;;5.50;3.42;;;;;;;;;;4996813;28;20147;-84
2021/03/17 11:03:48;;;;;;;7.03;3.65;;;;;;;;;;5016251;28;20036;-84
2021/03/17 11:06:34;;;;;;;6.65;3.13;;;;;;;;;;4996130;28;20160;-84
2021/03/17 11:09:19;;;;;;;4.70;3.15;;;;;;;;;;4994720;28;20401;-83
2021/03/17 11:12:11;;;;;;;7.32;4.10;;;;;;;;;;4991180;28;20172;-80
2021/03/17 11:14:56;;;;;;;66.60;35.05;;;;;;;;;;4996920;28;20038;-85
2021/03/17 11:17:50;;;;;;;21.90;12.50;;;;;;;;;;5011659;28;20026;-84
2021/03/17 11:20:39;;;;;;;11.98;6.85;;;;;;;;;;4997201;28;20121;-87
2021/03/17 11:23:27;;;;;;;15.33;10.73;;;;;;;;;;4999144;28;20358;-84
2021/03/17 11:26:31;;;;;;;5.45;2.80;;;;;;;;;;5001081;28;20056;-85
2021/03/17 11:29:17;;;;;;;6.55;3.25;;;;;;;;;;5001666;28;20037;-84
2021/03/17 11:32:07;;;;;;;7.68;3.25;;;;;;;;;;5013237;28;20030;-84
2021/03/17 11:34:52;;;;;;;9.50;3.15;;;;;;;;;;4991085;28;20066;-85
2021/03/17 11:37:37;;;;;;;7.18;3.33;;;;;;;;;;4989796;28;20031;-82
2021/03/17 11:40:22;;;;;;;5.70;3.28;;;;;;;;;;5002512;28;20033;-82
2021/03/17 11:43:09;;;;;;;5.47;3.58;;;;;;;;;;4992992;28;20060;-81
2021/03/17 11:45:55;;;;;;;8.00;4.78;;;;;;;;;;4993795;28;20080;-80
2021/03/17 11:48:41;;;;;;;12.63;5.07;;;;;;;;;;4997134;28;20571;-81
2021/03/17 11:51:26;;;;;;;7.22;4.60;;;;;;;;;;4993494;28;20480;-81
2021/03/17 11:54:11;;;;;;;8.88;4.72;;;;;;;;;;4994056;28;20540;-81
2021/03/17 11:56:57;;;;;;;10.38;5.68;;;;;;;;;;5011512;28;20027;-83
2021/03/17 11:59:42;;;;;;;11.73;7.30;;;;;;;;;;5017047;28;20481;-82
2021/03/17 12:02:27;;;;;;;10.65;5.97;;;;;;;;;;4996491;28;20034;-80
2021/03/17 12:05:13;;;;;;;10.68;6.28;;;;;;;;;;4994268;28;20599;-80
2021/03/17 12:07:58;;;;;;;12.00;6.60;;;;;;;;;;4992266;28;20033;-80
2021/03/17 12:10:44;;;;;;;15.52;7.72;;;;;;;;;;5007481;28;20026;-79
2021/03/17 12:13:29;;;;;;;12.50;6.85;;;;;;;;;;4993676;28;20097;-81
2021/03/17 12:16:15;;;;;;;14.77;7.25;;;;;;;;;;4999477;28;20680;-80
2021/03/17 12:19:00;;;;;;;13.30;8.23;;;;;;;;;;5013016;28;20504;-84
2021/03/17 12:21:45;;;;;;;12.43;7.88;;;;;;;;;;4993335;28;20539;-79
2021/03/17 12:24:30;;;;;;;12.65;8.32;;;;;;;;;;4996346;28;20499;-79
2021/03/17 12:27:16;;;;;;;13.07;7.82;;;;;;;;;;5011036;28;20498;-79
2021/03/17 12:30:02;;;;;;;14.40;7.95;;;;;;;;;;5014447;28;20036;-79
2021/03/17 12:32:48;;;;;;;10.65;6.45;;;;;;;;;;5000311;28;20032;-78
2021/03/17 12:35:33;;;;;;;12.90;8.20;;;;;;;;;;5009520;28;20068;-80
2021/03/17 12:38:19;;;;;;;11.40;7.88;;;;;;;;;;4995006;28;20503;-78
2021/03/17 12:41:04;;;;;;;10.38;6.90;;;;;;;;;;4990649;28;20060;-79
2021/03/17 12:43:49;;;;;;;11.95;7.45;;;;;;;;;;4993664;28;20029;-78
2021/03/17 12:46:35;;;;;;;10.73;6.70;;;;;;;;;;5002221;28;20026;-78
2021/03/17 12:49:20;;;;;;;11.07;7.10;;;;;;;;;;4989905;28;20038;-79
2021/03/17 12:52:05;;;;;;;12.98;8.45;;;;;;;;;;4983134;28;20017;-80
2021/03/17 12:54:50;;;;;;;14.00;8.68;;;;;;;;;;4996249;28;20105;-79
2021/03/17 12:57:36;;;;;;;12.23;7.85;;;;;;;;;;4997048;28;20029;-78
2021/03/17 13:00:24;;;;;;;12.05;7.88;;;;;;;;;;4995340;28;20026;-80
2021/03/17 13:03:09;;;;;;;13.60;7.78;;;;;;;;;;5013290;28;20061;-81
2021/03/17 13:05:54;;;;;;;12.75;8.13;;;;;;;;;;5012354;28;20673;-80
2021/03/17 13:08:39;;;;;;;11.52;7.47;;;;;;;;;;4996596;28;20545;-80
2021/03/17 13:11:24;;;;;;;10.85;7.47;;;;;;;;;;5010654;28;20033;-81
2021/03/17 13:14:11;;;;;;;10.20;6.40;;;;;;;;;;5012855;28;20161;-79
2021/03/17 13:16:56;;;;;;;9.88;6.80;;;;;;;;;;5001276;28;20087;-78
2021/03/17 13:19:41;;;;;;;12.15;6.82;;;;;;;;;;4996390;28;20358;-79
2021/03/17 13:22:27;;;;;;;8.38;5.43;;;;;;;;;;4999619;28;20681;-79
2021/03/17 13:25:13;;;;;;;8.38;5.65;;;;;;;;;;4992869;28;20092;-84
2021/03/17 13:27:58;;;;;;;8.75;5.93;;;;;;;;;;5007699;28;20029;-80
2021/03/17 13:30:47;;;;;;;9.43;6.20;;;;;;;;;;4995354;28;20477;-79
2021/03/17 13:33:32;;;;;;;9.70;6.65;;;;;;;;;;5013673;28;20029;-81
2021/03/17 13:36:18;;;;;;;10.95;7.10;;;;;;;;;;4997915;28;20592;-80
2021/03/17 13:39:04;;;;;;;9.82;6.43;;;;;;;;;;4988332;28;20035;-77
2021/03/17 13:41:49;;;;;;;11.18;7.07;;;;;;;;;;5009838;28;20113;-80
2021/03/17 13:44:34;;;;;;;11.85;7.15;;;;;;;;;;5010058;28;20046;-80
2021/03/17 13:47:19;;;;;;;10.07;6.75;;;;;;;;;;5004677;28;20022;-82
2021/03/17 13:50:10;;;;;;;11.48;8.20;;;;;;;;;;4985044;28;20018;-82
2021/03/17 13:52:56;;;;;;;40.22;27.40;;;;;;;;;;5003609;28;20013;-82
2021/03/17 13:55:42;;;;;;;14.35;9.60;;;;;;;;;;5013769;28;20532;-82
2021/03/17 13:58:28;;;;;;;14.70;8.05;;;;;;;;;;4992948;28;20026;-83
2021/03/17 14:01:13;;;;;;;12.52;7.32;;;;;;;;;;4994331;28;20026;-80
2021/03/17 14:03:58;;;;;;;11.27;7.45;;;;;;;;;;5016615;28;20081;-82
2021/03/17 14:06:44;;;;;;;10.77;7.50;;;;;;;;;;5013843;28;20492;-83
2021/03/17 14:09:29;;;;;;;13.07;8.05;;;;;;;;;;4999828;28;20621;-84
2021/03/17 14:12:14;;;;;;;11.60;7.15;;;;;;;;;;4994319;28;20022;-82
2021/03/17 14:14:59;;;;;;;11.68;7.03;;;;;;;;;;4992915;28;20093;-83
2021/03/17 14:17:45;;;;;;;10.02;6.55;;;;;;;;;;4998340;28;20018;-77
2021/03/17 14:20:31;;;;;;;12.25;7.38;;;;;;;;;;5019200;28;20030;-83
2021/03/17 14:23:16;;;;;;;10.73;6.95;;;;;;;;;;4999656;28;20026;-81
2021/03/17 14:26:02;;;;;;;8.25;5.03;;;;;;;;;;5001870;28;20061;-80
2021/03/17 14:28:49;;;;;;;6.22;4.05;;;;;;;;;;5003226;28;20036;-81
2021/03/17 14:31:35;;;;;;;5.55;3.65;;;;;;;;;;5001713;28;20654;-79
2021/03/17 14:34:20;;;;;;;5.80;4.07;;;;;;;;;;5008670;28;20330;-87
2021/03/17 14:37:07;;;;;;;4.20;3.30;;;;;;;;;;5004304;28;20018;-81
2021/03/17 14:39:52;;;;;;;5.90;3.92;;;;;;;;;;4997146;28;20025;-84
2021/03/17 14:42:38;;;;;;;5.13;3.85;;;;;;;;;;5004460;28;20465;-86
2021/03/17 14:45:23;;;;;;;6.22;4.25;;;;;;;;;;5002135;28;20037;-81
2021/03/17 14:48:08;;;;;;;39.50;25.98;;;;;;;;;;4995942;28;20072;-80
2021/03/17 14:50:54;;;;;;;5.57;3.80;;;;;;;;;;5001910;28;20140;-82
2021/03/17 14:53:39;;;;;;;10.07;5.68;;;;;;;;;;4995126;28;20520;-80
2021/03/17 14:56:24;;;;;;;7.68;5.10;;;;;;;;;;5017282;28;20029;-82
2021/03/17 14:59:09;;;;;;;42.92;6.88;;;;;;;;;;5000484;28;20026;-83
2021/03/17 15:01:55;;;;;;;7.78;4.63;;;;;;;;;;4994810;28;20429;-82
2021/03/17 15:04:40;;;;;;;10.18;5.47;;;;;;;;;;4976581;28;20030;-81
2021/03/17 15:07:28;;;;;;;9.80;5.20;;;;;;;;;;5001674;28;20416;-81
2021/03/17 15:10:14;;;;;;;4.85;2.45;;;;;;;;;;4994283;28;20052;-81
2021/03/17 15:12:59;;;;;;;4.43;2.78;;;;;;;;;;4999117;28;20092;-81
2021/03/17 15:15:44;;;;;;;4.43;2.65;;;;;;;;;;4997198;28;20033;-83
2021/03/17 15:18:30;;;;;;;2.72;1.52;;;;;;;;;;5013776;28;20048;-81
2021/03/17 15:21:15;;;;;;;2.45;1.67;;;;;;;;;;4997255;28;20125;-82
2021/03/17 15:24:00;;;;;;;2.53;2.05;;;;;;;;;;5005769;28;20374;-82
2021/03/17 15:26:46;;;;;;;8.77;4.38;;;;;;;;;;5008399;28;20098;-83
2021/03/17 15:29:31;;;;;;;3.78;1.85;;;;;;;;;;5003599;28;20959;-84
2021/03/17 15:32:16;;;;;;;2.08;1.83;;;;;;;;;;4999997;28;20392;-85
2021/03/17 15:35:03;;;;;;;3.90;2.22;;;;;;;;;;4999002;28;20025;-88
2021/03/17 15:37:49;;;;;;;2.28;1.77;;;;;;;;;;5010303;28;20093;-87
2021/03/17 15:40:35;;;;;;;3.38;1.90;;;;;;;;;;5020729;28;20431;-88
2021/03/17 15:43:23;;;;;;;3.55;1.85;;;;;;;;;;5023283;28;20028;-89
2021/03/17 15:46:08;;;;;;;3.58;1.90;;;;;;;;;;5007183;28;20087;-89
2021/03/17 15:48:54;;;;;;;3.75;1.83;;;;;;;;;;5007029;28;20030;-86
2021/03/17 15:51:39;;;;;;;2.90;1.92;;;;;;;;;;5004752;28;20481;-88
2021/03/17 15:54:25;;;;;;;3.30;2.25;;;;;;;;;;5004163;28;20534;-87
2021/03/17 15:57:10;;;;;;;4.60;2.50;;;;;;;;;;4990764;28;20081;-87
2021/03/17 15:59:59;;;;;;;5.47;2.22;;;;;;;;;;5004020;28;20108;-86
2021/03/17 16:02:44;;;;;;;4.22;2.40;;;;;;;;;;5004594;28;20042;-88
2021/03/17 16:05:30;;;;;;;6.28;2.95;;;;;;;;;;4985821;28;20384;-89
2021/03/17 16:08:15;;;;;;;4.78;2.60;;;;;;;;;;5007693;28;20033;-87
2021/03/17 16:11:00;;;;;;;6.03;2.88;;;;;;;;;;5004766;28;20106;-87
2021/03/17 16:13:46;;;;;;;5.07;2.28;;;;;;;;;;5006308;28;20424;-87
2021/03/17 16:16:31;;;;;;;3.83;2.75;;;;;;;;;;5012373;28;20425;-87
2021/03/17 16:19:16;;;;;;;4.00;2.47;;;;;;;;;;5017501;28;20021;-88
2021/03/17 16:22:02;;;;;;;5.45;3.05;;;;;;;;;;5015453;28;20060;-88
2021/03/17 16:24:48;;;;;;;4.95;2.78;;;;;;;;;;4985804;28;20028;-87
2021/03/17 16:27:33;;;;;;;18.60;10.77;;;;;;;;;;5008088;28;20554;-87
2021/03/17 16:30:21;;;;;;;9.43;4.40;;;;;;;;;;5007361;28;20476;-90
2021/03/17 16:33:07;;;;;;;4.25;2.35;;;;;;;;;;5013239;28;20029;-88
2021/03/17 16:35:52;;;;;;;4.60;2.90;;;;;;;;;;5020961;28;20097;-89